createdAt,value
2019-05-10T00:02:06.041Z,46.88
2019-05-10T00:04:54.320Z,42.45
2019-05-10T00:07:43.099Z,39.85
2019-05-10T00:10:12.919Z,38.33
2019-05-10T00:13:02.784Z,38.50
2019-05-10T00:15:33.103Z,41.08
2019-05-10T00:18:03.420Z,37.40
2019-05-10T00:20:33.719Z,38.00
2019-05-10T00:23:04.028Z,38.35
2019-05-10T00:25:34.288Z,40.23
2019-05-10T00:28:04.584Z,37.48
2019-05-10T00:30:35.878Z,37.17
2019-05-10T00:33:07.778Z,34.67
2019-05-10T00:35:37.932Z,34.25
2019-05-10T00:38:08.229Z,36.25
2019-05-10T00:40:38.494Z,37.85
2019-05-10T00:43:08.738Z,35.75
2019-05-10T00:45:38.992Z,38.55
2019-05-10T00:48:09.269Z,33.55
2019-05-10T00:50:39.459Z,37.83
2019-05-10T00:53:09.791Z,35.65
2019-05-10T00:55:39.983Z,38.95
2019-05-10T00:58:10.439Z,39.03
2019-05-10T01:00:40.821Z,46.63
2019-05-10T01:03:11.185Z,36.75
2019-05-10T01:05:41.371Z,38.55
2019-05-10T01:08:11.703Z,40.70
2019-05-10T01:10:41.985Z,37.88
2019-05-10T01:13:12.343Z,41.95
2019-05-10T01:15:46.416Z,41.40
2019-05-10T01:18:15.287Z,42.85
2019-05-10T01:20:46.171Z,35.58
2019-05-10T01:23:16.432Z,39.08
2019-05-10T01:25:46.698Z,41.53
2019-05-10T01:28:17.023Z,41.83
2019-05-10T01:30:47.243Z,39.42
2019-05-10T01:33:17.568Z,42.50
2019-05-10T01:35:47.777Z,38.90
2019-05-10T01:38:18.044Z,43.45
2019-05-10T01:40:48.330Z,41.05
2019-05-10T01:43:18.659Z,37.73
2019-05-10T01:45:48.919Z,42.67
2019-05-10T01:48:19.276Z,41.10
2019-05-10T01:50:49.544Z,40.00
2019-05-10T02:01:12.970Z,43.00
2019-05-10T02:03:43.377Z,42.43
2019-05-10T02:06:13.699Z,44.20
2019-05-10T02:08:43.945Z,41.77
2019-05-10T02:11:14.303Z,40.65
2019-05-10T02:13:44.543Z,39.00
2019-05-10T02:16:14.847Z,42.98
2019-05-10T02:18:45.113Z,41.45
2019-05-10T02:21:15.336Z,40.05
2019-05-10T02:23:45.593Z,41.05
2019-05-10T02:26:15.820Z,41.40
2019-05-10T02:28:46.008Z,42.40
2019-05-10T02:31:21.281Z,42.40
2019-05-10T02:33:49.444Z,39.00
2019-05-10T02:36:19.642Z,41.30
2019-05-10T02:38:49.840Z,41.85
2019-05-10T02:41:20.240Z,43.10
2019-05-10T02:43:50.598Z,48.63
2019-05-10T02:46:20.821Z,52.73
2019-05-10T02:48:51.096Z,51.48
2019-05-10T02:51:21.389Z,52.50
2019-05-10T02:53:51.777Z,55.60
2019-05-10T02:56:30.568Z,46.48
2019-05-10T02:58:56.945Z,41.13
2019-05-10T03:01:30.165Z,41.75
2019-05-10T03:04:02.007Z,37.73
2019-05-10T03:06:35.508Z,39.63
2019-05-10T03:09:07.505Z,41.75
2019-05-10T03:11:40.860Z,38.17
2019-05-10T03:14:13.819Z,35.23
2019-05-10T03:16:47.069Z,35.30
2019-05-10T03:19:20.285Z,36.00
2019-05-10T03:21:53.545Z,34.58
2019-05-10T03:24:27.771Z,33.08
2019-05-10T03:26:55.726Z,29.60
2019-05-10T03:29:25.980Z,45.23
2019-05-10T03:31:56.383Z,33.92
2019-05-10T03:34:26.718Z,32.85
2019-05-10T03:36:57.331Z,38.38
2019-05-10T03:39:27.955Z,35.08
2019-05-10T03:41:58.197Z,38.05
2019-05-10T03:44:28.467Z,35.10
2019-05-10T03:46:58.754Z,34.55
2019-05-10T03:49:29.028Z,36.75
2019-05-10T03:51:59.445Z,38.08
2019-05-10T03:54:29.730Z,48.68
2019-05-10T03:57:12.114Z,42.48
2019-05-10T03:59:31.953Z,42.78
2019-05-10T04:02:02.202Z,41.40
2019-05-10T04:04:32.460Z,36.95
2019-05-10T04:07:02.769Z,39.27
2019-05-10T04:09:33.011Z,36.28
2019-05-10T04:12:03.305Z,34.33
2019-05-10T04:14:33.558Z,42.00
2019-05-10T04:17:04.088Z,35.70
2019-05-10T04:19:34.300Z,38.02
2019-05-10T04:22:04.584Z,35.52
2019-05-10T04:24:36.531Z,38.25
2019-05-10T04:27:06.704Z,35.75
2019-05-10T04:29:36.963Z,35.13
2019-05-10T04:32:07.272Z,34.08
2019-05-10T04:34:37.558Z,35.73
2019-05-10T04:37:08.064Z,36.10
2019-05-10T04:39:39.341Z,33.23
2019-05-10T04:42:09.663Z,35.33
2019-05-10T04:44:39.925Z,39.38
2019-05-10T04:47:10.290Z,39.05
2019-05-10T04:49:40.499Z,43.15
2019-05-10T04:52:10.788Z,37.30
2019-05-10T04:54:41.236Z,39.53
2019-05-10T04:57:11.575Z,40.20
2019-05-10T04:59:41.944Z,37.80
2019-05-10T05:02:12.465Z,36.00
2019-05-10T05:04:42.908Z,38.15
2019-05-10T05:07:13.305Z,40.33
2019-05-10T05:09:43.591Z,35.75
2019-05-10T05:12:14.092Z,32.30
2019-05-10T05:14:51.295Z,33.05
2019-05-10T05:17:21.779Z,34.00
2019-05-10T05:19:52.327Z,36.35
2019-05-10T05:22:22.617Z,36.15
2019-05-10T05:24:55.234Z,30.48
2019-05-10T05:27:24.861Z,34.25
2019-05-10T05:29:55.059Z,30.80
2019-05-10T05:32:25.359Z,37.75
2019-05-10T05:34:55.634Z,29.35
2019-05-10T05:37:25.965Z,33.63
2019-05-10T05:39:56.838Z,30.23
2019-05-10T05:42:28.509Z,29.37
2019-05-10T05:44:59.367Z,29.55
2019-05-10T05:47:30.226Z,29.52
2019-05-10T05:50:00.487Z,42.98
2019-05-10T05:52:30.784Z,28.62
2019-05-10T05:55:01.149Z,28.27
2019-05-10T05:57:32.470Z,41.28
2019-05-10T06:00:04.362Z,33.80
2019-05-10T06:02:44.288Z,34.85
2019-05-10T06:05:07.064Z,34.67
2019-05-10T06:07:38.466Z,26.90
2019-05-10T06:10:17.066Z,26.17
2019-05-10T06:12:44.626Z,34.50
2019-05-10T06:15:23.120Z,29.30
2019-05-10T06:17:57.054Z,27.07
2019-05-10T06:20:24.015Z,27.42
2019-05-10T06:23:06.628Z,28.87
2019-05-10T06:25:39.478Z,25.17
2019-05-10T06:28:01.468Z,26.12
2019-05-10T06:30:37.747Z,19.48
2019-05-10T06:33:12.721Z,19.48
2019-05-10T06:35:39.897Z,22.40
2019-05-10T06:38:10.127Z,16.77
2019-05-10T06:40:46.839Z,22.85
2019-05-10T06:43:13.658Z,22.58
2019-05-10T06:45:46.660Z,24.45
2019-05-10T06:48:26.012Z,21.10
2019-05-10T06:50:48.723Z,18.25
2019-05-10T06:53:19.096Z,21.70
2019-05-10T06:55:49.580Z,15.48
2019-05-10T06:58:20.084Z,16.85
2019-05-10T07:00:50.416Z,17.55
2019-05-10T07:03:20.805Z,14.83
2019-05-10T07:05:51.083Z,25.02
2019-05-10T07:08:21.539Z,17.02
2019-05-10T07:10:51.732Z,15.28
2019-05-10T07:13:22.073Z,14.18
2019-05-10T07:15:52.872Z,15.50
2019-05-10T07:18:24.270Z,15.63
2019-05-10T07:20:54.747Z,13.35
2019-05-10T07:23:25.071Z,14.55
2019-05-10T07:25:55.239Z,14.93
2019-05-10T07:28:26.097Z,16.73
2019-05-10T07:30:56.259Z,18.40
2019-05-10T07:33:26.553Z,19.37
2019-05-10T07:35:57.821Z,20.43
2019-05-10T07:38:30.694Z,21.30
2019-05-10T07:41:00.256Z,17.23
2019-05-10T07:43:30.574Z,16.48
2019-05-10T07:46:06.059Z,20.80
2019-05-10T07:48:32.748Z,12.40
2019-05-10T07:51:03.129Z,14.80
2019-05-10T07:53:33.394Z,18.92
2019-05-10T07:56:06.243Z,11.97
2019-05-10T07:58:38.139Z,12.68
2019-05-10T08:01:08.363Z,12.00
2019-05-10T08:03:44.320Z,20.72
2019-05-10T08:06:10.416Z,11.53
2019-05-10T08:08:40.642Z,13.58
2019-05-10T08:11:10.935Z,16.60
2019-05-10T08:13:41.862Z,8.98
2019-05-10T08:16:19.661Z,11.55
2019-05-10T08:18:44.142Z,10.48
2019-05-10T08:21:21.690Z,13.98
2019-05-10T08:23:46.256Z,10.43
2019-05-10T08:26:21.947Z,10.53
2019-05-10T08:28:48.528Z,15.83
2019-05-10T08:31:18.886Z,11.25
2019-05-10T08:33:56.094Z,13.48
2019-05-10T08:36:21.903Z,18.02
2019-05-10T08:39:05.147Z,9.25
2019-05-10T08:41:24.195Z,12.90
2019-05-10T08:43:54.487Z,8.08
2019-05-10T08:46:33.026Z,8.88
2019-05-10T08:48:57.565Z,5.53
2019-05-10T08:51:27.747Z,8.10
2019-05-10T08:53:58.436Z,7.83
2019-05-10T08:56:28.882Z,12.90
2019-05-10T08:59:00.459Z,13.58
2019-05-10T09:01:38.800Z,8.95
2019-05-10T09:04:06.865Z,9.08
2019-05-10T09:06:35.980Z,9.65
2019-05-10T09:09:08.424Z,6.58
2019-05-10T09:11:38.842Z,8.53
2019-05-10T09:14:12.288Z,10.98
2019-05-10T09:16:45.703Z,9.65
2019-05-10T09:19:13.451Z,6.87
2019-05-10T09:21:49.767Z,9.75
2019-05-10T09:24:16.556Z,6.85
2019-05-10T09:26:51.622Z,8.38
2019-05-10T09:29:18.652Z,10.55
2019-05-10T09:31:50.612Z,14.33
2019-05-10T09:34:23.643Z,19.35
2019-05-10T09:36:53.046Z,14.53
2019-05-10T09:39:25.258Z,36.53
2019-05-10T09:41:56.683Z,12.40
2019-05-10T09:44:27.487Z,6.28
2019-05-10T09:46:58.061Z,5.55
2019-05-10T09:49:28.335Z,7.67
2019-05-10T09:51:58.734Z,5.80
2019-05-10T09:54:33.341Z,7.92
2019-05-10T09:57:00.963Z,5.40
2019-05-10T09:59:31.230Z,10.00
2019-05-10T10:02:04.991Z,9.08
2019-05-10T10:04:33.319Z,5.95
2019-05-10T10:07:04.548Z,4.45
2019-05-10T10:09:42.516Z,11.22
2019-05-10T10:12:08.108Z,10.38
2019-05-10T10:14:42.616Z,7.62
2019-05-10T10:17:10.288Z,6.17
2019-05-10T10:19:40.855Z,14.68
2019-05-10T10:22:13.168Z,7.58
2019-05-10T10:24:43.100Z,4.80
2019-05-10T10:27:13.413Z,7.10
2019-05-10T10:29:43.797Z,7.55
2019-05-10T10:32:14.035Z,4.17
2019-05-10T10:34:44.264Z,4.35
2019-05-10T10:37:19.345Z,5.67
2019-05-10T10:39:47.671Z,7.10
2019-05-10T10:42:19.163Z,4.03
2019-05-10T10:44:49.563Z,7.58
2019-05-10T10:47:22.984Z,5.42
2019-05-10T10:49:52.758Z,7.20
2019-05-10T10:52:23.036Z,8.90
2019-05-10T10:54:53.336Z,18.65
2019-05-10T10:57:23.654Z,4.22
2019-05-10T10:59:57.368Z,8.88
2019-05-10T11:02:33.581Z,4.33
2019-05-10T11:05:03.177Z,7.72
2019-05-10T11:07:35.974Z,3.60
2019-05-10T11:10:17.970Z,7.25
2019-05-10T11:12:41.302Z,8.45
2019-05-10T11:15:16.414Z,4.92
2019-05-10T11:20:14.408Z,5.08
2019-05-10T11:22:51.688Z,3.90
2019-05-10T11:25:17.333Z,5.33
2019-05-10T11:27:52.322Z,6.90
2019-05-10T11:30:21.473Z,4.00
2019-05-10T11:32:51.445Z,6.30
2019-05-10T11:35:28.516Z,7.37
2019-05-10T11:37:54.296Z,4.85
2019-05-10T11:40:30.857Z,4.22
2019-05-10T11:42:56.436Z,4.35
2019-05-10T11:45:32.237Z,5.62
2019-05-10T11:48:01.910Z,5.67
2019-05-10T11:50:35.142Z,3.62
2019-05-10T11:53:07.045Z,6.67
2019-05-10T11:55:37.840Z,5.12
2019-05-10T11:58:12.231Z,7.05
2019-05-10T12:00:41.399Z,5.80
2019-05-10T12:03:18.143Z,6.50
2019-05-10T12:05:43.797Z,6.20
2019-05-10T12:08:15.001Z,9.60
2019-05-10T12:10:52.657Z,4.62
2019-05-10T12:13:23.643Z,2.37
2019-05-10T12:15:51.925Z,5.12
2019-05-10T12:18:26.870Z,7.78
2019-05-10T12:21:07.335Z,1.40
2019-05-10T12:26:18.180Z,14.65
2019-05-10T12:27:14.062Z,2.55
2019-05-10T12:28:35.398Z,4.03
2019-05-10T12:31:07.681Z,2.33
2019-05-10T12:33:35.081Z,1.75
2019-05-10T12:36:05.547Z,1.30
2019-05-10T12:38:36.583Z,9.58
2019-05-10T12:41:07.828Z,1.52
2019-05-10T12:43:38.055Z,3.15
2019-05-10T12:46:10.355Z,6.75
2019-05-10T12:48:42.484Z,5.22
2019-05-10T12:51:16.019Z,6.05
2019-05-10T12:53:49.029Z,8.20
2019-05-10T12:56:16.883Z,3.70
2019-05-10T12:58:56.229Z,5.65
2019-05-10T13:01:19.439Z,3.20
2019-05-10T13:03:49.717Z,4.83
2019-05-10T13:06:20.003Z,3.90
2019-05-10T13:08:50.219Z,5.72
2019-05-10T13:11:25.471Z,4.85
2019-05-10T13:13:52.499Z,4.95
2019-05-10T13:16:22.774Z,2.52
2019-05-10T13:18:53.063Z,3.50
2019-05-10T13:21:23.803Z,3.65
2019-05-10T13:23:55.393Z,5.17
2019-05-10T13:26:25.833Z,7.22
2019-05-10T13:28:56.092Z,10.03
2019-05-10T13:31:26.369Z,11.50
2019-05-10T13:33:56.635Z,6.33
2019-05-10T13:36:30.626Z,8.50
2019-05-10T13:38:58.910Z,5.30
2019-05-10T13:41:29.712Z,5.12
2019-05-10T13:44:04.993Z,10.13
2019-05-10T13:46:32.349Z,5.17
2019-05-10T13:49:02.487Z,5.78
2019-05-10T13:51:33.881Z,8.45
2019-05-10T13:54:05.253Z,6.05
2019-05-10T13:56:35.769Z,4.10
2019-05-10T13:59:15.822Z,3.90
2019-05-10T14:01:38.477Z,4.10
2019-05-10T14:04:08.642Z,4.25
2019-05-10T14:06:38.920Z,9.63
2019-05-10T14:09:09.203Z,6.25
2019-05-10T14:11:40.946Z,7.75
2019-05-10T14:14:14.576Z,9.88
2019-05-10T14:16:43.205Z,5.30
2019-05-10T14:19:16.089Z,4.08
2019-05-10T14:21:45.273Z,3.75
2019-05-10T14:24:16.681Z,8.05
2019-05-10T14:26:51.411Z,3.30
2019-05-10T14:29:18.937Z,5.17
2019-05-10T14:31:49.239Z,3.27
2019-05-10T14:34:19.416Z,5.45
2019-05-10T14:36:50.433Z,5.60
2019-05-10T14:39:20.706Z,7.37
2019-05-10T14:41:52.451Z,3.25
2019-05-10T14:44:22.879Z,2.80
2019-05-10T14:46:53.417Z,6.50
2019-05-10T14:49:23.667Z,12.82
2019-05-10T14:51:58.981Z,5.72
2019-05-10T14:54:42.270Z,6.33
2019-05-10T14:56:58.975Z,4.65
2019-05-10T14:59:29.372Z,2.67
2019-05-10T15:01:59.706Z,3.33
2019-05-10T15:04:45.191Z,2.20
2019-05-10T15:07:01.912Z,4.62
2019-05-10T15:09:32.148Z,2.80
2019-05-10T15:12:02.450Z,3.20
2019-05-10T15:14:33.100Z,6.70
2019-05-10T15:17:03.302Z,5.60
2019-05-10T15:19:33.522Z,3.70
2019-05-10T15:22:04.404Z,3.95
2019-05-10T15:24:36.180Z,3.67
2019-05-10T15:27:06.492Z,10.70
2019-05-10T15:29:44.440Z,5.75
2019-05-10T15:32:14.707Z,3.55
2019-05-10T15:35:04.358Z,3.90
2019-05-10T15:37:17.797Z,4.22
2019-05-10T15:39:48.357Z,8.60
2019-05-10T15:42:21.821Z,10.88
2019-05-10T15:44:56.560Z,8.98
2019-05-10T15:47:26.823Z,5.53
2019-05-10T15:50:00.145Z,7.05
2019-05-10T15:52:29.038Z,7.05
2019-05-10T15:54:59.308Z,7.00
2019-05-10T15:57:32.455Z,5.58
2019-05-10T16:00:01.492Z,6.92
2019-05-10T16:02:33.334Z,14.23
2019-05-10T16:05:22.248Z,4.45
2019-05-10T16:07:36.801Z,8.08
2019-05-10T16:10:07.603Z,7.55
2019-05-10T16:12:42.892Z,10.20
2019-05-10T16:15:19.551Z,7.47
2019-05-10T16:17:45.185Z,13.78
2019-05-10T16:20:15.491Z,10.20
2019-05-10T16:22:45.799Z,5.58
2019-05-10T16:25:16.075Z,8.10
2019-05-10T16:27:46.412Z,12.40
2019-05-10T16:30:20.136Z,12.70
2019-05-10T16:32:49.804Z,6.53
2019-05-10T16:35:22.205Z,4.37
2019-05-10T16:37:52.717Z,6.35
2019-05-10T16:40:22.973Z,5.35
2019-05-10T16:42:53.540Z,9.43
2019-05-10T16:45:23.803Z,21.50
2019-05-10T16:47:54.092Z,10.32
2019-05-10T16:50:26.132Z,12.82
2019-05-10T16:52:59.427Z,10.98
2019-05-10T16:55:28.323Z,9.38
2019-05-10T16:57:58.617Z,7.70
2019-05-10T17:00:29.127Z,12.10
2019-05-10T17:02:59.321Z,11.10
2019-05-10T17:05:31.033Z,8.85
2019-05-10T17:08:01.296Z,8.93
2019-05-10T17:10:33.010Z,10.28
2019-05-10T17:13:04.819Z,10.10
2019-05-10T17:15:39.722Z,12.00
2019-05-10T17:18:10.514Z,6.67
2019-05-10T17:20:40.020Z,7.75
2019-05-10T17:23:11.217Z,6.58
2019-05-10T17:25:42.341Z,9.55
2019-05-10T17:28:12.936Z,5.33
2019-05-10T17:30:44.896Z,7.55
2019-05-10T17:33:15.121Z,11.70
2019-05-10T17:35:45.441Z,9.18
2019-05-10T17:38:16.401Z,9.35
2019-05-10T17:40:49.808Z,10.53
2019-05-10T17:43:22.665Z,10.23
2019-05-10T17:45:51.618Z,12.78
2019-05-10T17:48:21.908Z,10.28
2019-05-10T17:50:52.160Z,14.20
2019-05-10T17:53:22.461Z,11.08
2019-05-10T17:55:56.461Z,12.88
2019-05-10T17:58:27.975Z,13.43
2019-05-10T18:00:56.705Z,17.32
2019-05-10T18:03:27.447Z,14.85
2019-05-10T18:05:57.739Z,14.50
2019-05-10T18:08:28.006Z,21.07
2019-05-10T18:11:04.136Z,17.75
2019-05-10T18:13:30.628Z,18.52
2019-05-10T18:16:04.467Z,22.02
2019-05-10T18:18:35.290Z,19.98
2019-05-10T18:21:06.592Z,19.55
2019-05-10T18:23:36.860Z,20.00
2019-05-10T18:26:07.173Z,20.00
2019-05-10T18:28:37.376Z,18.00
2019-05-10T18:31:07.743Z,17.82
2019-05-10T18:33:38.028Z,20.77
2019-05-10T18:36:11.103Z,16.77
2019-05-10T18:38:41.696Z,17.90
2019-05-10T18:41:12.069Z,18.17
2019-05-10T18:43:42.911Z,15.50
2019-05-10T18:46:14.299Z,19.00
2019-05-10T18:48:44.607Z,18.85
2019-05-10T18:51:18.007Z,20.88
2019-05-10T18:53:46.852Z,17.77
2019-05-10T18:56:17.087Z,18.92
2019-05-10T18:58:47.283Z,24.60
2019-05-10T19:01:17.523Z,20.52
2019-05-10T19:03:47.845Z,23.65
2019-05-10T19:06:18.135Z,26.45
2019-05-10T19:08:48.763Z,24.07
2019-05-10T19:11:19.140Z,21.45
2019-05-10T19:13:53.817Z,22.52
2019-05-10T19:16:26.141Z,34.35
2019-05-10T19:18:55.907Z,26.55
2019-05-10T19:21:38.316Z,25.43
2019-05-10T19:24:08.713Z,26.90
2019-05-10T19:26:39.341Z,28.75
2019-05-10T19:29:09.604Z,23.32
2019-05-10T19:31:40.550Z,26.95
2019-05-10T19:34:15.468Z,29.20
2019-05-10T19:36:42.889Z,38.35
2019-05-10T19:39:13.152Z,33.92
2019-05-10T19:41:44.259Z,26.02
2019-05-10T19:44:14.523Z,26.02
2019-05-10T19:46:44.865Z,32.40
2019-05-10T19:49:15.578Z,35.17
2019-05-10T19:51:49.048Z,36.98
2019-05-10T19:54:19.987Z,33.83
2019-05-10T19:56:51.190Z,35.63
2019-05-10T19:59:23.084Z,95.28
2019-05-10T20:01:54.400Z,60.88
2019-05-10T20:04:24.675Z,47.75
2019-05-10T20:06:55.002Z,45.03
2019-05-10T20:09:25.272Z,47.53
2019-05-10T20:11:55.572Z,35.13
2019-05-10T20:14:25.896Z,34.15
2019-05-10T20:16:56.164Z,41.28
2019-05-10T20:19:26.448Z,38.40
2019-05-10T20:21:56.767Z,37.05
2019-05-10T20:24:32.414Z,31.60
2019-05-10T20:26:59.487Z,33.05
2019-05-10T20:29:29.719Z,31.73
2019-05-10T20:32:00.077Z,44.83
2019-05-10T20:34:30.344Z,42.73
2019-05-10T20:37:00.696Z,42.67
2019-05-10T20:39:30.933Z,37.38
2019-05-10T20:42:01.225Z,37.85
2019-05-10T20:44:32.513Z,37.45
2019-05-10T20:47:02.858Z,53.05
2019-05-10T20:49:33.169Z,36.48
2019-05-10T20:52:06.376Z,35.63
2019-05-10T20:57:06.176Z,35.03
2019-05-10T20:59:36.443Z,32.65
2019-05-10T21:02:06.901Z,34.43
2019-05-10T21:04:37.555Z,35.20
2019-05-10T21:07:07.893Z,30.08
2019-05-10T21:09:38.121Z,38.28
2019-05-10T21:12:08.453Z,29.92
2019-05-10T21:14:38.720Z,34.55
2019-05-10T21:17:09.112Z,32.75
2019-05-10T21:19:39.411Z,30.48
2019-05-10T21:22:09.765Z,31.52
2019-05-10T21:24:40.042Z,28.75
2019-05-10T21:27:11.396Z,29.63
2019-05-10T21:29:41.635Z,31.87
2019-05-10T21:32:12.042Z,35.10
2019-05-10T21:34:42.388Z,38.48
2019-05-10T21:37:12.666Z,45.48
2019-05-10T21:39:44.068Z,36.60
2019-05-10T21:42:14.395Z,45.85
2019-05-10T21:44:44.684Z,56.98
2019-05-10T21:47:14.964Z,61.40
2019-05-10T21:49:45.266Z,66.80
2019-05-10T21:52:15.576Z,63.30
2019-05-10T21:54:45.888Z,62.60
2019-05-10T21:57:16.163Z,47.55
2019-05-10T21:59:46.504Z,32.73
2019-05-10T22:02:17.785Z,36.03
2019-05-10T22:04:48.387Z,28.73
2019-05-10T22:07:19.810Z,31.07
2019-05-10T22:09:50.124Z,23.75
2019-05-10T22:12:20.416Z,27.82
2019-05-10T22:14:50.948Z,26.15
2019-05-10T22:17:21.212Z,28.73
2019-05-10T22:19:51.571Z,28.05
2019-05-10T22:22:21.852Z,27.30
2019-05-10T22:24:52.196Z,30.05
2019-05-10T22:27:22.446Z,28.38
2019-05-10T22:29:52.799Z,25.82
2019-05-10T22:32:23.080Z,28.07
2019-05-10T22:34:53.475Z,36.25
2019-05-10T22:37:23.863Z,27.50
2019-05-10T22:39:54.230Z,28.17
2019-05-10T22:42:24.487Z,25.40
2019-05-10T22:44:54.786Z,24.32
2019-05-10T22:47:25.636Z,25.32
2019-05-10T22:49:56.093Z,23.65
2019-05-10T22:52:26.363Z,24.60
2019-05-10T22:54:59.957Z,25.40
2019-05-10T22:57:29.573Z,22.10
2019-05-10T22:59:59.925Z,23.05
2019-05-10T23:02:30.262Z,19.40
2019-05-10T23:05:00.700Z,26.15
2019-05-10T23:07:30.979Z,23.67
2019-05-10T23:10:01.555Z,21.73
2019-05-10T23:12:32.997Z,20.95
2019-05-10T23:15:03.257Z,24.80
2019-05-10T23:17:33.727Z,19.62
2019-05-10T23:20:04.079Z,17.98
2019-05-10T23:22:34.516Z,19.60
2019-05-10T23:25:06.896Z,22.52
2019-05-10T23:27:37.274Z,25.32
2019-05-10T23:30:07.645Z,22.17
2019-05-10T23:32:37.996Z,18.92
2019-05-10T23:35:08.304Z,21.30
2019-05-10T23:37:38.744Z,21.45
2019-05-10T23:40:09.909Z,20.90
2019-05-10T23:42:40.372Z,20.30
2019-05-10T23:45:12.266Z,19.02
2019-05-10T23:47:42.542Z,22.02
2019-05-10T23:50:12.941Z,21.70
2019-05-10T23:52:43.860Z,23.60
2019-05-10T23:55:14.120Z,24.15
2019-05-10T23:57:44.381Z,18.80
